createdAt,value
2018-02-04T00:01:50.293Z,0.68
2018-02-04T00:04:17.805Z,0.73
2018-02-04T00:06:45.324Z,0.78
2018-02-04T00:09:12.834Z,0.66
2018-02-04T00:11:40.367Z,0.72
2018-02-04T00:14:07.873Z,0.65
2018-02-04T00:16:35.394Z,0.61
2018-02-04T00:19:02.966Z,0.70
2018-02-04T00:21:30.449Z,0.72
2018-02-04T00:23:57.961Z,0.76
2018-02-04T00:26:25.471Z,0.63
2018-02-04T00:28:52.984Z,0.63
2018-02-04T00:31:20.523Z,0.64
2018-02-04T00:33:48.031Z,0.60
2018-02-04T00:36:15.553Z,0.66
2018-02-04T00:38:43.061Z,0.64
2018-02-04T00:41:10.575Z,0.65
2018-02-04T00:43:38.106Z,0.63
2018-02-04T00:46:05.620Z,0.64
2018-02-04T00:48:33.141Z,0.60
2018-02-04T00:51:00.644Z,0.57
2018-02-04T00:53:28.160Z,0.56
2018-02-04T00:55:55.673Z,0.55
2018-02-04T00:58:23.182Z,0.53
2018-02-04T01:00:50.692Z,0.53
2018-02-04T01:03:18.201Z,0.51
2018-02-04T01:05:45.706Z,0.54
2018-02-04T01:08:13.226Z,0.46
2018-02-04T01:10:40.741Z,0.44
2018-02-04T01:13:08.265Z,0.44
2018-02-04T01:15:35.776Z,0.48
2018-02-04T01:18:03.288Z,0.43
2018-02-04T01:20:30.806Z,0.46
2018-02-04T01:22:58.321Z,0.40
2018-02-04T01:25:25.832Z,0.44
2018-02-04T01:27:53.342Z,0.40
2018-02-04T01:30:20.859Z,0.41
2018-02-04T01:32:48.371Z,0.52
2018-02-04T01:35:15.885Z,0.35
2018-02-04T01:37:43.405Z,0.26
2018-02-04T01:40:10.918Z,0.24
2018-02-04T01:42:38.436Z,0.18
2018-02-04T01:45:05.957Z,0.26
2018-02-04T01:47:33.490Z,0.32
2018-02-04T01:50:00.997Z,0.30
2018-02-04T01:52:28.513Z,0.24
2018-02-04T01:54:56.033Z,0.20
2018-02-04T01:57:23.544Z,0.19
2018-02-04T01:59:51.053Z,0.12
2018-02-04T02:02:18.571Z,0.11
2018-02-04T02:04:46.085Z,0.08
2018-02-04T02:07:13.596Z,0.20
2018-02-04T02:09:41.125Z,0.17
2018-02-04T02:12:08.642Z,0.16
2018-02-04T02:14:36.150Z,0.10
2018-02-04T02:17:03.674Z,0.13
2018-02-04T02:19:31.181Z,0.10
2018-02-04T02:21:58.701Z,0.12
2018-02-04T02:24:26.223Z,0.10
2018-02-04T02:26:53.741Z,0.18
2018-02-04T02:29:21.258Z,0.13
2018-02-04T02:31:48.788Z,0.09
2018-02-04T02:34:16.301Z,0.13
2018-02-04T02:36:43.828Z,0.11
2018-02-04T02:39:11.348Z,0.06
2018-02-04T02:41:38.902Z,0.02
2018-02-04T02:44:06.421Z,-0.04
2018-02-04T02:46:33.933Z,-0.03
2018-02-04T02:49:01.452Z,-0.07
2018-02-04T02:51:28.981Z,-0.09
2018-02-04T02:53:56.498Z,-0.13
2018-02-04T02:56:24.001Z,-0.09
2018-02-04T02:58:51.512Z,-0.13
2018-02-04T03:01:19.024Z,-0.16
2018-02-04T03:03:46.549Z,-0.18
2018-02-04T03:06:14.062Z,-0.12
2018-02-04T03:08:41.582Z,-0.17
2018-02-04T03:11:09.097Z,-0.24
2018-02-04T03:13:36.614Z,-0.22
2018-02-04T03:16:04.140Z,-0.19
2018-02-04T03:18:31.659Z,-0.23
2018-02-04T03:20:59.171Z,-0.24
2018-02-04T03:23:26.676Z,-0.22
2018-02-04T03:25:54.195Z,-0.24
2018-02-04T03:28:21.704Z,-0.26
2018-02-04T03:30:49.231Z,-0.28
2018-02-04T03:33:16.749Z,-0.28
2018-02-04T03:35:44.255Z,-0.29
2018-02-04T03:38:11.784Z,-0.32
2018-02-04T03:40:39.290Z,-0.35
2018-02-04T03:43:06.803Z,-0.38
2018-02-04T03:45:34.304Z,-0.40
2018-02-04T03:48:01.842Z,-0.42
2018-02-04T03:50:29.356Z,-0.41
2018-02-04T03:52:56.877Z,-0.42
2018-02-04T03:55:24.517Z,-0.49
2018-02-04T03:57:52.043Z,-0.51
2018-02-04T04:00:19.620Z,-0.53
2018-02-04T04:02:47.132Z,-0.53
2018-02-04T04:05:14.660Z,-0.53
2018-02-04T04:07:42.172Z,-0.56
2018-02-04T04:10:09.776Z,-0.58
2018-02-04T04:12:37.292Z,-0.60
2018-02-04T04:15:04.895Z,-0.65
2018-02-04T04:17:32.420Z,-0.66
2018-02-04T04:19:59.938Z,-0.65
2018-02-04T04:22:27.469Z,-0.69
2018-02-04T04:24:54.993Z,-0.69
2018-02-04T04:27:22.517Z,-0.70
2018-02-04T04:29:50.057Z,-0.70
2018-02-04T04:32:17.607Z,-0.73
2018-02-04T04:34:45.119Z,-0.74
2018-02-04T04:37:12.641Z,-0.76
2018-02-04T04:39:40.153Z,-0.74
2018-02-04T04:42:07.669Z,-0.76
2018-02-04T04:44:35.324Z,-0.77
2018-02-04T04:47:02.841Z,-0.78
2018-02-04T04:49:30.385Z,-0.81
2018-02-04T04:51:57.913Z,-0.79
2018-02-04T04:54:25.430Z,-0.79
2018-02-04T04:56:52.945Z,-0.82
2018-02-04T04:59:20.464Z,-0.80
2018-02-04T05:01:47.977Z,-0.83
2018-02-04T05:04:15.494Z,-0.86
2018-02-04T05:06:43.010Z,-0.88
2018-02-04T05:09:10.542Z,-0.87
2018-02-04T05:11:38.061Z,-0.86
2018-02-04T05:14:05.580Z,-0.92
2018-02-04T05:16:33.095Z,-0.92
2018-02-04T05:19:00.616Z,-0.87
2018-02-04T05:21:28.125Z,-0.91
2018-02-04T05:23:55.639Z,-0.90
2018-02-04T05:26:23.167Z,-0.93
2018-02-04T05:28:50.684Z,-0.92
2018-02-04T05:31:18.200Z,-0.90
2018-02-04T05:33:45.712Z,-0.92
2018-02-04T05:36:13.220Z,-0.92
2018-02-04T05:38:40.738Z,-0.93
2018-02-04T05:41:08.253Z,-0.95
2018-02-04T05:43:35.765Z,-0.96
2018-02-04T05:46:03.393Z,-0.96
2018-02-04T05:48:30.903Z,-0.97
2018-02-04T05:50:58.407Z,-0.94
2018-02-04T05:53:25.924Z,-0.92
2018-02-04T05:55:53.438Z,-0.91
2018-02-04T05:58:20.965Z,-0.91
2018-02-04T06:00:48.476Z,-0.94
2018-02-04T06:03:16.003Z,-0.92
2018-02-04T06:05:43.539Z,-0.94
2018-02-04T06:08:11.068Z,-0.93
2018-02-04T06:10:38.683Z,-0.96
2018-02-04T06:13:06.344Z,-0.93
2018-02-04T06:15:33.900Z,-0.94
2018-02-04T06:18:01.426Z,-0.96
2018-02-04T06:20:28.949Z,-0.98
2018-02-04T06:22:56.484Z,-0.98
2018-02-04T06:25:23.997Z,-1.01
2018-02-04T06:27:51.514Z,-0.98
2018-02-04T06:30:19.032Z,-1.06
2018-02-04T06:32:46.548Z,-1.03
2018-02-04T06:35:14.066Z,-1.06
2018-02-04T06:37:41.577Z,-1.07
2018-02-04T06:40:09.124Z,-1.07
2018-02-04T06:42:36.632Z,-1.09
2018-02-04T06:45:04.139Z,-1.11
2018-02-04T06:47:31.662Z,-1.10
2018-02-04T06:49:59.202Z,-1.09
2018-02-04T06:52:26.790Z,-1.06
2018-02-04T06:54:54.313Z,-1.05
2018-02-04T06:57:21.841Z,-1.03
2018-02-04T06:59:49.371Z,-1.05
2018-02-04T07:02:16.889Z,-0.99
2018-02-04T07:04:44.406Z,-1.06
2018-02-04T07:07:11.934Z,-1.06
2018-02-04T07:09:39.459Z,-0.96
2018-02-04T07:12:06.988Z,-0.92
2018-02-04T07:14:34.513Z,-0.99
2018-02-04T07:17:02.042Z,-0.96
2018-02-04T07:19:29.574Z,-0.96
2018-02-04T07:21:57.112Z,-0.85
2018-02-04T07:24:24.666Z,-0.80
2018-02-04T07:26:52.208Z,-0.75
2018-02-04T07:29:19.715Z,-0.66
2018-02-04T07:31:47.242Z,-0.65
2018-02-04T07:34:14.763Z,-0.61
2018-02-04T07:36:42.288Z,-0.68
2018-02-04T07:39:09.809Z,-0.63
2018-02-04T07:41:37.325Z,-0.70
2018-02-04T07:44:04.841Z,-0.70
2018-02-04T07:46:32.368Z,-0.69
2018-02-04T07:48:59.888Z,-0.64
2018-02-04T07:51:27.399Z,-0.51
2018-02-04T07:53:54.939Z,-0.42
2018-02-04T07:56:22.473Z,-0.23
2018-02-04T07:58:49.994Z,-0.21
2018-02-04T08:01:17.514Z,-0.20
2018-02-04T08:03:45.034Z,-0.13
2018-02-04T08:06:12.560Z,-0.07
2018-02-04T08:08:40.097Z,-0.04
2018-02-04T08:11:07.622Z,0.23
2018-02-04T08:13:35.136Z,0.35
2018-02-04T08:16:02.701Z,0.52
2018-02-04T08:18:30.236Z,0.69
2018-02-04T08:20:57.740Z,1.01
2018-02-04T08:23:25.261Z,1.00
2018-02-04T08:25:52.835Z,1.21
2018-02-04T08:28:20.332Z,1.28
2018-02-04T08:30:47.840Z,1.32
2018-02-04T08:33:15.350Z,1.70
2018-02-04T08:35:42.868Z,1.85
2018-02-04T08:38:10.377Z,2.02
2018-02-04T08:40:37.906Z,2.12
2018-02-04T08:43:05.413Z,2.33
2018-02-04T08:45:32.915Z,1.94
2018-02-04T08:48:00.415Z,2.20
2018-02-04T08:50:27.925Z,2.20
2018-02-04T08:52:55.436Z,2.51
2018-02-04T08:55:22.940Z,2.45
2018-02-04T08:57:50.462Z,3.00
2018-02-04T09:00:17.974Z,3.07
2018-02-04T09:02:45.486Z,3.11
2018-02-04T09:05:13.001Z,3.31
2018-02-04T09:07:40.515Z,3.68
2018-02-04T09:10:08.034Z,3.65
2018-02-04T09:12:35.542Z,3.74
2018-02-04T09:15:03.054Z,3.77
2018-02-04T09:17:30.560Z,4.20
2018-02-04T09:19:58.069Z,4.50
2018-02-04T09:22:25.616Z,4.37
2018-02-04T09:24:53.141Z,4.80
2018-02-04T09:27:20.655Z,4.63
2018-02-04T09:29:48.177Z,4.30
2018-02-04T09:32:15.697Z,4.41
2018-02-04T09:34:43.213Z,4.76
2018-02-04T09:37:10.724Z,4.57
2018-02-04T09:39:38.243Z,4.85
2018-02-04T09:42:05.763Z,4.68
2018-02-04T09:44:33.288Z,4.87
2018-02-04T09:47:00.811Z,5.39
2018-02-04T09:49:28.325Z,5.90
2018-02-04T09:51:55.836Z,5.20
2018-02-04T09:54:23.344Z,6.34
2018-02-04T09:56:50.861Z,6.06
2018-02-04T09:59:18.372Z,5.45
2018-02-04T10:01:45.896Z,5.96
2018-02-04T10:04:13.408Z,6.76
2018-02-04T10:06:40.933Z,5.94
2018-02-04T10:09:08.452Z,6.04
2018-02-04T10:11:35.970Z,6.71
2018-02-04T10:14:03.487Z,7.17
2018-02-04T10:16:31.006Z,6.89
2018-02-04T10:18:58.522Z,6.85
2018-02-04T10:21:26.033Z,6.83
2018-02-04T10:23:53.548Z,6.40
2018-02-04T10:26:21.089Z,6.15
2018-02-04T10:28:48.611Z,6.23
2018-02-04T10:31:16.131Z,6.02
2018-02-04T10:33:43.662Z,5.41
2018-02-04T10:36:11.191Z,5.61
2018-02-04T10:38:38.763Z,5.24
2018-02-04T10:41:06.280Z,4.75
2018-02-04T10:43:33.794Z,4.94
2018-02-04T10:46:01.322Z,5.37
2018-02-04T10:48:28.839Z,5.49
2018-02-04T10:51:02.002Z,5.36
2018-02-04T10:53:40.310Z,5.24
2018-02-04T10:56:07.836Z,4.80
2018-02-04T10:58:35.345Z,4.41
2018-02-04T11:01:02.856Z,4.45
2018-02-04T11:03:30.368Z,4.54
2018-02-04T11:05:57.886Z,4.46
2018-02-04T11:08:25.402Z,4.43
2018-02-04T11:10:52.921Z,4.38
2018-02-04T11:13:20.432Z,4.18
2018-02-04T11:15:47.944Z,4.00
2018-02-04T11:18:15.453Z,3.54
2018-02-04T11:20:42.974Z,3.99
2018-02-04T11:23:10.496Z,4.15
2018-02-04T11:25:38.007Z,4.09
2018-02-04T11:28:05.537Z,4.04
2018-02-04T11:30:33.078Z,4.06
2018-02-04T11:33:00.578Z,3.98
2018-02-04T11:35:28.129Z,4.15
2018-02-04T11:37:55.610Z,4.12
2018-02-04T11:40:23.126Z,4.37
2018-02-04T11:42:50.763Z,4.30
2018-02-04T11:45:18.280Z,4.05
2018-02-04T11:47:45.809Z,3.82
2018-02-04T11:50:13.317Z,3.71
2018-02-04T11:52:40.838Z,3.62
2018-02-04T11:55:08.336Z,3.67
2018-02-04T11:57:35.844Z,3.61
2018-02-04T12:00:03.352Z,3.61
2018-02-04T12:02:30.855Z,3.63
2018-02-04T12:04:58.369Z,3.58
2018-02-04T12:07:25.870Z,3.65
2018-02-04T12:09:53.392Z,3.53
2018-02-04T12:12:20.894Z,3.69
2018-02-04T12:14:48.405Z,3.70
2018-02-04T12:17:15.912Z,3.69
2018-02-04T12:19:43.430Z,3.46
2018-02-04T12:22:10.938Z,3.58
2018-02-04T12:24:38.460Z,3.57
2018-02-04T12:27:05.970Z,3.63
2018-02-04T12:29:33.481Z,3.49
2018-02-04T12:32:01.002Z,3.51
2018-02-04T12:34:28.505Z,3.45
2018-02-04T12:36:56.861Z,3.53
2018-02-04T12:39:24.376Z,3.59
2018-02-04T12:41:51.893Z,3.71
2018-02-04T12:44:19.397Z,3.71
2018-02-04T12:46:46.936Z,3.75
2018-02-04T12:49:14.441Z,3.91
2018-02-04T12:51:41.948Z,4.12
2018-02-04T12:54:09.457Z,4.26
2018-02-04T12:56:36.964Z,4.39
2018-02-04T12:59:04.459Z,4.45
2018-02-04T13:01:31.972Z,4.51
2018-02-04T13:03:59.476Z,4.39
2018-02-04T13:06:27.000Z,4.30
2018-02-04T13:08:54.521Z,4.52
2018-02-04T13:11:22.021Z,4.49
2018-02-04T13:13:49.532Z,4.31
2018-02-04T13:16:17.052Z,4.15
2018-02-04T13:18:44.621Z,4.24
2018-02-04T13:21:12.102Z,4.37
2018-02-04T13:23:39.626Z,4.56
2018-02-04T13:26:07.147Z,4.65
2018-02-04T13:28:34.772Z,4.70
2018-02-04T13:31:02.243Z,4.59
2018-02-04T13:33:29.765Z,4.77
2018-02-04T13:35:57.273Z,4.57
2018-02-04T13:38:24.789Z,4.44
2018-02-04T13:40:52.332Z,4.29
2018-02-04T13:43:19.844Z,4.03
2018-02-04T13:45:47.354Z,4.03
2018-02-04T13:48:14.873Z,3.76
2018-02-04T13:50:42.380Z,3.67
2018-02-04T13:53:09.893Z,3.65
2018-02-04T13:55:37.398Z,3.67
2018-02-04T13:58:04.918Z,3.63
2018-02-04T14:00:32.463Z,3.57
2018-02-04T14:02:59.970Z,3.47
2018-02-04T14:05:27.537Z,3.24
2018-02-04T14:07:55.028Z,3.06
2018-02-04T14:10:22.558Z,3.15
2018-02-04T14:12:50.060Z,3.27
2018-02-04T14:15:17.570Z,3.17
2018-02-04T14:17:45.082Z,3.13
2018-02-04T14:20:12.584Z,3.08
2018-02-04T14:22:40.092Z,3.12
2018-02-04T14:25:07.617Z,2.98
2018-02-04T14:27:35.126Z,2.94
2018-02-04T14:30:02.628Z,2.91
2018-02-04T14:32:30.146Z,2.89
2018-02-04T14:34:57.661Z,2.75
2018-02-04T14:37:25.178Z,2.78
2018-02-04T14:39:52.735Z,2.80
2018-02-04T14:42:20.220Z,2.77
2018-02-04T14:44:47.717Z,2.67
2018-02-04T14:47:15.226Z,2.65
2018-02-04T14:49:42.745Z,2.73
2018-02-04T14:52:10.258Z,2.72
2018-02-04T14:54:37.774Z,2.69
2018-02-04T14:57:05.314Z,2.63
2018-02-04T14:59:32.819Z,2.57
2018-02-04T15:02:00.331Z,2.55
2018-02-04T15:04:27.844Z,2.54
2018-02-04T15:06:55.362Z,2.44
2018-02-04T15:09:22.874Z,2.39
2018-02-04T15:11:50.381Z,2.40
2018-02-04T15:14:17.885Z,2.35
2018-02-04T15:16:45.393Z,2.28
2018-02-04T15:19:12.897Z,2.30
2018-02-04T15:21:40.413Z,2.27
2018-02-04T15:24:07.917Z,2.29
2018-02-04T15:26:35.433Z,2.20
2018-02-04T15:29:02.936Z,2.19
2018-02-04T15:31:30.463Z,2.07
2018-02-04T15:33:57.966Z,2.06
2018-02-04T15:36:25.477Z,2.07
2018-02-04T15:38:53.005Z,2.16
2018-02-04T15:41:20.531Z,2.12
2018-02-04T15:43:48.044Z,2.05
2018-02-04T15:46:15.554Z,2.07
2018-02-04T15:48:43.065Z,2.05
2018-02-04T15:51:10.569Z,2.04
2018-02-04T15:53:38.080Z,2.02
2018-02-04T15:56:05.588Z,1.99
2018-02-04T15:58:33.096Z,1.93
2018-02-04T16:01:00.605Z,1.93
2018-02-04T16:03:28.124Z,1.96
2018-02-04T16:05:55.641Z,1.90
2018-02-04T16:08:23.161Z,1.86
2018-02-04T16:10:50.709Z,1.90
2018-02-04T16:13:18.224Z,2.03
2018-02-04T16:15:45.831Z,2.01
2018-02-04T16:18:13.371Z,1.92
2018-02-04T16:20:40.930Z,1.85
2018-02-04T16:23:08.433Z,1.85
2018-02-04T16:25:35.955Z,1.90
2018-02-04T16:28:03.477Z,1.86
2018-02-04T16:30:31.009Z,1.82
2018-02-04T16:32:58.538Z,1.80
2018-02-04T16:35:26.069Z,1.79
2018-02-04T16:37:53.663Z,1.83
2018-02-04T16:40:21.182Z,1.78
2018-02-04T16:42:48.706Z,1.76
2018-02-04T16:45:16.229Z,1.75
2018-02-04T16:47:43.759Z,1.78
2018-02-04T16:50:11.287Z,1.81
2018-02-04T16:52:38.814Z,1.85
2018-02-04T16:55:06.332Z,1.80
2018-02-04T16:57:33.864Z,1.89
2018-02-04T17:00:01.382Z,1.83
2018-02-04T17:02:28.925Z,1.84
2018-02-04T17:04:56.449Z,1.82
2018-02-04T17:07:23.964Z,1.77
2018-02-04T17:09:51.487Z,1.69
2018-02-04T17:12:19.017Z,1.67
2018-02-04T17:14:46.537Z,1.66
2018-02-04T17:17:14.066Z,1.69
2018-02-04T17:19:41.592Z,1.62
2018-02-04T17:22:09.101Z,1.58
2018-02-04T17:24:36.636Z,1.53
2018-02-04T17:27:04.162Z,1.59
2018-02-04T17:29:31.676Z,1.58
2018-02-04T17:31:59.190Z,1.59
2018-02-04T17:34:26.710Z,1.59
2018-02-04T17:36:54.231Z,1.64
2018-02-04T17:39:21.782Z,1.59
2018-02-04T17:41:49.316Z,1.63
2018-02-04T17:44:16.835Z,1.66
2018-02-04T17:46:44.344Z,1.59
2018-02-04T17:49:11.985Z,1.63
2018-02-04T17:51:39.496Z,1.59
2018-02-04T17:54:07.025Z,1.59
2018-02-04T17:56:34.538Z,1.66
2018-02-04T17:59:02.070Z,1.73
2018-02-04T18:01:29.582Z,1.78
2018-02-04T18:03:57.123Z,1.75
2018-02-04T18:06:24.665Z,1.81
2018-02-04T18:08:52.192Z,1.82
2018-02-04T18:11:19.721Z,1.83
2018-02-04T18:13:47.252Z,1.83
2018-02-04T18:16:14.770Z,1.76
2018-02-04T18:18:42.308Z,1.78
2018-02-04T18:21:09.834Z,1.76
2018-02-04T18:23:37.361Z,1.79
2018-02-04T18:26:04.890Z,1.79
2018-02-04T18:28:32.405Z,1.74
2018-02-04T18:30:59.936Z,1.75
2018-02-04T18:33:27.450Z,1.79
2018-02-04T18:35:54.997Z,1.82
2018-02-04T18:38:22.521Z,1.87
2018-02-04T18:40:50.043Z,1.88
2018-02-04T18:43:17.563Z,1.85
2018-02-04T18:45:45.089Z,1.78
2018-02-04T18:48:12.621Z,1.84
2018-02-04T18:50:40.146Z,1.78
2018-02-04T18:53:07.669Z,1.78
2018-02-04T18:55:35.189Z,1.80
2018-02-04T18:58:02.749Z,1.80
2018-02-04T19:00:30.272Z,1.87
2018-02-04T19:02:57.790Z,1.90
2018-02-04T19:05:25.428Z,1.98
2018-02-04T19:07:52.988Z,1.94
2018-02-04T19:10:20.515Z,1.97
2018-02-04T19:12:48.049Z,2.05
2018-02-04T19:15:15.567Z,2.15
2018-02-04T19:17:43.087Z,2.15
2018-02-04T19:20:10.609Z,2.02
2018-02-04T19:22:38.150Z,2.11
2018-02-04T19:25:05.676Z,2.11
2018-02-04T19:27:33.194Z,2.19
2018-02-04T19:30:00.713Z,2.10
2018-02-04T19:32:28.233Z,2.18
2018-02-04T19:34:55.762Z,2.15
2018-02-04T19:37:23.291Z,2.19
2018-02-04T19:39:50.817Z,2.20
2018-02-04T19:42:18.350Z,2.23
2018-02-04T19:44:45.873Z,2.30
2018-02-04T19:47:13.428Z,2.38
2018-02-04T19:49:40.960Z,2.37
2018-02-04T19:52:08.478Z,2.37
2018-02-04T19:54:36.003Z,2.32
2018-02-04T19:57:03.532Z,2.32
2018-02-04T19:59:31.062Z,2.36
2018-02-04T20:01:58.584Z,2.41
2018-02-04T20:04:26.137Z,2.39
2018-02-04T20:06:53.666Z,2.42
2018-02-04T20:09:21.204Z,2.44
2018-02-04T20:11:48.725Z,2.44
2018-02-04T20:14:16.243Z,2.48
2018-02-04T20:16:43.780Z,2.51
2018-02-04T20:19:11.299Z,2.46
2018-02-04T20:21:38.826Z,2.40
2018-02-04T20:24:06.364Z,2.32
2018-02-04T20:26:33.888Z,2.42
2018-02-04T20:29:01.406Z,2.39
2018-02-04T20:31:28.931Z,2.30
2018-02-04T20:34:08.102Z,2.29
2018-02-04T20:36:35.625Z,2.19
2018-02-04T20:39:03.164Z,2.18
2018-02-04T20:41:30.695Z,2.22
2018-02-04T20:43:58.225Z,2.25
2018-02-04T20:46:25.789Z,2.26
2018-02-04T20:48:53.381Z,2.19
2018-02-04T20:51:20.880Z,2.19
2018-02-04T20:53:48.419Z,2.16
2018-02-04T20:56:15.957Z,2.15
2018-02-04T20:58:43.469Z,2.09
2018-02-04T21:01:11.009Z,2.13
2018-02-04T21:03:38.535Z,2.14
2018-02-04T21:06:06.066Z,2.10
2018-02-04T21:08:33.588Z,2.14
2018-02-04T21:11:01.111Z,2.11
2018-02-04T21:13:28.637Z,2.14
2018-02-04T21:15:56.166Z,2.12
2018-02-04T21:18:23.688Z,2.12
2018-02-04T21:20:51.201Z,2.18
2018-02-04T21:23:18.720Z,2.20
2018-02-04T21:25:46.245Z,2.24
2018-02-04T21:28:13.765Z,2.08
2018-02-04T21:30:41.313Z,2.04
2018-02-04T21:33:08.833Z,2.12
2018-02-04T21:35:36.353Z,2.06
2018-02-04T21:38:03.875Z,2.02
2018-02-04T21:40:31.407Z,2.02
2018-02-04T21:42:58.944Z,2.05
2018-02-04T21:45:26.486Z,1.97
2018-02-04T21:47:54.014Z,1.97
2018-02-04T21:50:21.527Z,1.93
2018-02-04T21:52:49.129Z,1.90
2018-02-04T21:55:16.694Z,1.87
2018-02-04T21:57:44.230Z,1.92
2018-02-04T22:00:11.984Z,1.86
2018-02-04T22:02:39.360Z,1.81
2018-02-04T22:05:06.879Z,1.67
2018-02-04T22:07:34.415Z,1.64
2018-02-04T22:10:01.947Z,1.58
2018-02-04T22:12:29.494Z,1.49
2018-02-04T22:14:57.029Z,1.46
2018-02-04T22:17:24.571Z,1.42
2018-02-04T22:19:52.118Z,1.41
2018-02-04T22:22:19.633Z,1.35
2018-02-04T22:24:47.148Z,1.36
2018-02-04T22:27:14.781Z,1.35
2018-02-04T22:29:42.297Z,1.32
2018-02-04T22:32:09.889Z,1.34
2018-02-04T22:34:37.449Z,1.31
2018-02-04T22:37:04.984Z,1.33
2018-02-04T22:39:32.499Z,1.40
2018-02-04T22:42:00.021Z,1.40
2018-02-04T22:44:27.576Z,1.42
2018-02-04T22:46:55.251Z,1.41
2018-02-04T22:49:22.817Z,1.46
2018-02-04T22:51:50.340Z,1.44
2018-02-04T22:54:17.861Z,1.49
2018-02-04T22:56:45.383Z,1.53
2018-02-04T22:59:12.897Z,1.56
2018-02-04T23:01:40.413Z,1.60
2018-02-04T23:04:07.933Z,1.59
2018-02-04T23:06:35.522Z,1.63
2018-02-04T23:09:03.054Z,1.60
2018-02-04T23:11:30.657Z,1.59
2018-02-04T23:13:58.312Z,1.59
2018-02-04T23:16:25.834Z,1.59
2018-02-04T23:18:53.357Z,1.58
2018-02-04T23:21:20.882Z,1.60
2018-02-04T23:23:48.397Z,1.54
2018-02-04T23:26:15.908Z,1.56
2018-02-04T23:28:43.452Z,1.52
2018-02-04T23:31:10.973Z,1.53
2018-02-04T23:33:38.488Z,1.51
2018-02-04T23:36:05.999Z,1.42
2018-02-04T23:38:33.542Z,1.38
2018-02-04T23:41:01.062Z,1.33
2018-02-04T23:43:28.613Z,1.35
2018-02-04T23:45:56.130Z,1.33
2018-02-04T23:48:23.653Z,1.27
2018-02-04T23:50:51.170Z,1.33
2018-02-04T23:53:18.744Z,1.31
2018-02-04T23:55:46.268Z,1.29
2018-02-04T23:58:13.803Z,1.29
